sensor_id;sensor_type;location;lat;lon;timestamp;temperature;humidity
22578;DHT22;11455;52.390;13.028;2023-06-24T00:01:16;20.90;1.00
22578;DHT22;11455;52.390;13.028;2023-06-24T00:03:42;21.00;1.00
22578;DHT22;11455;52.390;13.028;2023-06-24T00:06:12;21.00;1.00
22578;DHT22;11455;52.390;13.028;2023-06-24T00:08:44;21.00;1.00
22578;DHT22;11455;52.390;13.028;2023-06-24T00:11:10;20.90;1.00
22578;DHT22;11455;52.390;13.028;2023-06-24T00:13:38;20.80;1.00
22578;DHT22;11455;52.390;13.028;2023-06-24T00:16:04;20.70;1.00
22578;DHT22;11455;52.390;13.028;2023-06-24T00:18:32;20.70;1.00
22578;DHT22;11455;52.390;13.028;2023-06-24T00:20:57;20.70;1.00
22578;DHT22;11455;52.390;13.028;2023-06-24T00:23:23;20.70;1.00
22578;DHT22;11455;52.390;13.028;2023-06-24T00:25:50;20.80;1.00
22578;DHT22;11455;52.390;13.028;2023-06-24T00:28:16;20.80;1.00
22578;DHT22;11455;52.390;13.028;2023-06-24T00:30:41;20.70;1.00
22578;DHT22;11455;52.390;13.028;2023-06-24T00:33:07;20.70;1.00
22578;DHT22;11455;52.390;13.028;2023-06-24T00:35:36;20.60;1.00
22578;DHT22;11455;52.390;13.028;2023-06-24T00:38:03;20.50;1.00
22578;DHT22;11455;52.390;13.028;2023-06-24T00:40:31;20.60;1.00
22578;DHT22;11455;52.390;13.028;2023-06-24T00:42:59;20.50;1.00
22578;DHT22;11455;52.390;13.028;2023-06-24T00:45:27;20.40;1.00
22578;DHT22;11455;52.390;13.028;2023-06-24T00:47:55;20.20;1.00
22578;DHT22;11455;52.390;13.028;2023-06-24T00:50:21;20.10;1.00
22578;DHT22;11455;52.390;13.028;2023-06-24T00:52:47;20.30;1.00
22578;DHT22;11455;52.390;13.028;2023-06-24T00:55:15;20.40;1.00
22578;DHT22;11455;52.390;13.028;2023-06-24T00:57:43;20.50;1.00
22578;DHT22;11455;52.390;13.028;2023-06-24T01:00:09;20.70;1.00
22578;DHT22;11455;52.390;13.028;2023-06-24T01:02:41;20.80;99.90
22578;DHT22;11455;52.390;13.028;2023-06-24T01:05:08;20.90;99.90
22578;DHT22;11455;52.390;13.028;2023-06-24T01:07:35;21.00;99.90
22578;DHT22;11455;52.390;13.028;2023-06-24T01:10:05;21.10;99.90
22578;DHT22;11455;52.390;13.028;2023-06-24T01:12:35;21.10;99.90
22578;DHT22;11455;52.390;13.028;2023-06-24T01:15:01;21.10;99.90
22578;DHT22;11455;52.390;13.028;2023-06-24T01:17:31;21.10;99.90
22578;DHT22;11455;52.390;13.028;2023-06-24T01:20:11;21.20;99.90
22578;DHT22;11455;52.390;13.028;2023-06-24T01:27:57;21.10;99.90
22578;DHT22;11455;52.390;13.028;2023-06-24T01:32:59;21.10;99.90
22578;DHT22;11455;52.390;13.028;2023-06-24T01:35:28;21.10;99.90
22578;DHT22;11455;52.390;13.028;2023-06-24T01:37:57;20.90;99.90
22578;DHT22;11455;52.390;13.028;2023-06-24T01:40:28;20.60;99.90
22578;DHT22;11455;52.390;13.028;2023-06-24T01:43:00;20.40;99.90
22578;DHT22;11455;52.390;13.028;2023-06-24T01:45:27;20.20;99.90
22578;DHT22;11455;52.390;13.028;2023-06-24T01:48:01;19.80;99.90
22578;DHT22;11455;52.390;13.028;2023-06-24T01:50:27;19.80;99.90
22578;DHT22;11455;52.390;13.028;2023-06-24T01:52:54;19.60;99.90
22578;DHT22;11455;52.390;13.028;2023-06-24T01:55:20;19.50;99.90
22578;DHT22;11455;52.390;13.028;2023-06-24T01:57:48;19.40;99.90
22578;DHT22;11455;52.390;13.028;2023-06-24T02:00:14;19.40;99.90
22578;DHT22;11455;52.390;13.028;2023-06-24T02:02:49;19.20;99.90
22578;DHT22;11455;52.390;13.028;2023-06-24T02:05:15;19.00;1.00
22578;DHT22;11455;52.390;13.028;2023-06-24T02:07:42;18.80;1.00
22578;DHT22;11455;52.390;13.028;2023-06-24T02:10:08;18.80;1.00
22578;DHT22;11455;52.390;13.028;2023-06-24T02:12:35;18.70;1.00
22578;DHT22;11455;52.390;13.028;2023-06-24T02:15:01;18.70;1.00
22578;DHT22;11455;52.390;13.028;2023-06-24T02:17:27;18.60;1.00
22578;DHT22;11455;52.390;13.028;2023-06-24T02:19:54;18.60;1.00
22578;DHT22;11455;52.390;13.028;2023-06-24T02:22:20;18.50;1.00
22578;DHT22;11455;52.390;13.028;2023-06-24T02:24:47;18.40;1.00
22578;DHT22;11455;52.390;13.028;2023-06-24T02:27:14;18.40;1.00
22578;DHT22;11455;52.390;13.028;2023-06-24T02:29:39;18.40;1.00
22578;DHT22;11455;52.390;13.028;2023-06-24T02:32:06;18.30;1.00
22578;DHT22;11455;52.390;13.028;2023-06-24T02:34:32;18.30;1.00
22578;DHT22;11455;52.390;13.028;2023-06-24T02:36:59;18.50;1.00
22578;DHT22;11455;52.390;13.028;2023-06-24T02:39:27;18.60;1.00
22578;DHT22;11455;52.390;13.028;2023-06-24T02:41:54;18.80;1.00
22578;DHT22;11455;52.390;13.028;2023-06-24T02:44:20;19.10;99.90
22578;DHT22;11455;52.390;13.028;2023-06-24T02:46:45;19.30;99.90
22578;DHT22;11455;52.390;13.028;2023-06-24T02:49:15;19.30;99.90
22578;DHT22;11455;52.390;13.028;2023-06-24T02:51:41;19.40;99.90
22578;DHT22;11455;52.390;13.028;2023-06-24T02:54:07;19.40;99.90
22578;DHT22;11455;52.390;13.028;2023-06-24T02:56:56;19.30;99.90
22578;DHT22;11455;52.390;13.028;2023-06-24T02:59:32;19.00;99.90
22578;DHT22;11455;52.390;13.028;2023-06-24T03:01:59;18.60;99.90
22578;DHT22;11455;52.390;13.028;2023-06-24T03:04:25;18.30;99.90
22578;DHT22;11455;52.390;13.028;2023-06-24T03:06:51;18.10;1.00
22578;DHT22;11455;52.390;13.028;2023-06-24T03:09:18;18.00;1.00
22578;DHT22;11455;52.390;13.028;2023-06-24T03:11:45;17.90;1.00
22578;DHT22;11455;52.390;13.028;2023-06-24T03:14:14;17.90;1.00
22578;DHT22;11455;52.390;13.028;2023-06-24T03:16:42;17.90;1.00
22578;DHT22;11455;52.390;13.028;2023-06-24T03:19:15;17.90;1.00
22578;DHT22;11455;52.390;13.028;2023-06-24T03:21:41;18.00;1.00
22578;DHT22;11455;52.390;13.028;2023-06-24T03:24:11;17.90;1.00
22578;DHT22;11455;52.390;13.028;2023-06-24T03:26:38;17.90;1.00
22578;DHT22;11455;52.390;13.028;2023-06-24T03:29:08;17.90;1.00
22578;DHT22;11455;52.390;13.028;2023-06-24T03:31:34;17.80;1.00
22578;DHT22;11455;52.390;13.028;2023-06-24T03:34:00;17.70;1.00
22578;DHT22;11455;52.390;13.028;2023-06-24T03:36:27;17.70;1.00
22578;DHT22;11455;52.390;13.028;2023-06-24T03:38:53;17.70;1.00
22578;DHT22;11455;52.390;13.028;2023-06-24T03:41:19;17.70;1.00
22578;DHT22;11455;52.390;13.028;2023-06-24T03:43:44;17.60;1.00
22578;DHT22;11455;52.390;13.028;2023-06-24T03:46:11;17.60;1.00
22578;DHT22;11455;52.390;13.028;2023-06-24T03:48:37;17.40;1.00
22578;DHT22;11455;52.390;13.028;2023-06-24T03:51:03;17.40;1.00
22578;DHT22;11455;52.390;13.028;2023-06-24T03:53:29;17.40;1.00
22578;DHT22;11455;52.390;13.028;2023-06-24T03:55:55;17.30;1.00
22578;DHT22;11455;52.390;13.028;2023-06-24T03:58:21;17.30;1.00
22578;DHT22;11455;52.390;13.028;2023-06-24T04:00:48;17.40;1.00
22578;DHT22;11455;52.390;13.028;2023-06-24T04:03:15;17.40;1.00
22578;DHT22;11455;52.390;13.028;2023-06-24T04:05:43;17.30;1.00
22578;DHT22;11455;52.390;13.028;2023-06-24T04:08:09;17.30;1.00
22578;DHT22;11455;52.390;13.028;2023-06-24T04:10:34;17.30;1.00
22578;DHT22;11455;52.390;13.028;2023-06-24T04:13:00;17.30;1.00
22578;DHT22;11455;52.390;13.028;2023-06-24T04:15:26;17.20;1.00
22578;DHT22;11455;52.390;13.028;2023-06-24T04:17:52;17.20;1.00
22578;DHT22;11455;52.390;13.028;2023-06-24T04:20:19;17.10;1.00
22578;DHT22;11455;52.390;13.028;2023-06-24T04:22:45;17.10;1.00
22578;DHT22;11455;52.390;13.028;2023-06-24T04:25:10;17.10;1.00
22578;DHT22;11455;52.390;13.028;2023-06-24T04:27:39;17.10;1.00
22578;DHT22;11455;52.390;13.028;2023-06-24T04:30:07;17.10;1.00
22578;DHT22;11455;52.390;13.028;2023-06-24T04:32:33;17.10;1.00
22578;DHT22;11455;52.390;13.028;2023-06-24T04:34:59;17.10;1.00
22578;DHT22;11455;52.390;13.028;2023-06-24T04:37:28;17.10;1.00
22578;DHT22;11455;52.390;13.028;2023-06-24T04:39:54;17.20;1.00
22578;DHT22;11455;52.390;13.028;2023-06-24T04:42:19;17.20;1.00
22578;DHT22;11455;52.390;13.028;2023-06-24T04:44:45;17.20;1.00
22578;DHT22;11455;52.390;13.028;2023-06-24T04:47:11;17.20;1.00
22578;DHT22;11455;52.390;13.028;2023-06-24T04:49:39;17.20;1.00
22578;DHT22;11455;52.390;13.028;2023-06-24T04:52:05;17.30;1.00
22578;DHT22;11455;52.390;13.028;2023-06-24T04:54:31;17.30;1.00
22578;DHT22;11455;52.390;13.028;2023-06-24T04:56:57;17.40;1.00
22578;DHT22;11455;52.390;13.028;2023-06-24T04:59:22;17.50;1.00
22578;DHT22;11455;52.390;13.028;2023-06-24T05:01:48;17.50;1.00
22578;DHT22;11455;52.390;13.028;2023-06-24T05:04:14;17.40;1.00
22578;DHT22;11455;52.390;13.028;2023-06-24T05:06:39;17.40;1.00
22578;DHT22;11455;52.390;13.028;2023-06-24T05:09:05;17.40;1.00
22578;DHT22;11455;52.390;13.028;2023-06-24T05:11:31;17.40;1.00
22578;DHT22;11455;52.390;13.028;2023-06-24T05:13:56;17.40;1.00
22578;DHT22;11455;52.390;13.028;2023-06-24T05:16:23;17.50;1.00
22578;DHT22;11455;52.390;13.028;2023-06-24T05:18:49;17.50;1.00
22578;DHT22;11455;52.390;13.028;2023-06-24T05:21:15;17.60;1.00
22578;DHT22;11455;52.390;13.028;2023-06-24T05:23:41;17.50;1.00
22578;DHT22;11455;52.390;13.028;2023-06-24T05:26:06;17.40;1.00
22578;DHT22;11455;52.390;13.028;2023-06-24T05:28:32;17.40;1.00
22578;DHT22;11455;52.390;13.028;2023-06-24T05:30:58;17.40;1.00
22578;DHT22;11455;52.390;13.028;2023-06-24T05:33:23;17.30;1.00
22578;DHT22;11455;52.390;13.028;2023-06-24T05:35:49;17.40;1.00
22578;DHT22;11455;52.390;13.028;2023-06-24T05:38:15;17.40;1.00
22578;DHT22;11455;52.390;13.028;2023-06-24T05:40:41;17.40;1.00
22578;DHT22;11455;52.390;13.028;2023-06-24T05:43:06;17.40;1.00
22578;DHT22;11455;52.390;13.028;2023-06-24T05:45:32;17.50;1.00
22578;DHT22;11455;52.390;13.028;2023-06-24T05:48:02;17.60;1.00
22578;DHT22;11455;52.390;13.028;2023-06-24T05:50:30;17.70;1.00
22578;DHT22;11455;52.390;13.028;2023-06-24T05:52:55;17.70;1.00
22578;DHT22;11455;52.390;13.028;2023-06-24T05:55:21;17.70;1.00
22578;DHT22;11455;52.390;13.028;2023-06-24T05:57:47;17.70;1.00
22578;DHT22;11455;52.390;13.028;2023-06-24T06:00:12;17.90;1.00
22578;DHT22;11455;52.390;13.028;2023-06-24T06:02:40;18.10;1.00
22578;DHT22;11455;52.390;13.028;2023-06-24T06:05:06;18.20;1.00
22578;DHT22;11455;52.390;13.028;2023-06-24T06:07:32;18.20;1.00
22578;DHT22;11455;52.390;13.028;2023-06-24T06:09:57;18.20;1.00
22578;DHT22;11455;52.390;13.028;2023-06-24T06:12:23;18.20;1.00
22578;DHT22;11455;52.390;13.028;2023-06-24T06:14:48;18.40;1.00
22578;DHT22;11455;52.390;13.028;2023-06-24T06:17:14;18.40;1.00
22578;DHT22;11455;52.390;13.028;2023-06-24T06:19:40;18.30;1.00
22578;DHT22;11455;52.390;13.028;2023-06-24T06:22:07;18.40;1.00
22578;DHT22;11455;52.390;13.028;2023-06-24T06:24:33;18.50;1.00
22578;DHT22;11455;52.390;13.028;2023-06-24T06:26:58;18.60;1.00
22578;DHT22;11455;52.390;13.028;2023-06-24T06:29:24;18.70;1.00
22578;DHT22;11455;52.390;13.028;2023-06-24T06:31:51;18.60;1.00
22578;DHT22;11455;52.390;13.028;2023-06-24T06:34:19;18.70;1.00
22578;DHT22;11455;52.390;13.028;2023-06-24T06:36:45;18.80;1.00
22578;DHT22;11455;52.390;13.028;2023-06-24T06:39:13;18.90;1.00
22578;DHT22;11455;52.390;13.028;2023-06-24T06:41:39;18.80;99.90
22578;DHT22;11455;52.390;13.028;2023-06-24T06:44:08;18.90;1.00
22578;DHT22;11455;52.390;13.028;2023-06-24T06:46:33;18.80;99.90
22578;DHT22;11455;52.390;13.028;2023-06-24T06:48:59;18.70;1.00
22578;DHT22;11455;52.390;13.028;2023-06-24T06:51:25;18.70;1.00
22578;DHT22;11455;52.390;13.028;2023-06-24T06:53:53;18.80;1.00
22578;DHT22;11455;52.390;13.028;2023-06-24T06:56:21;18.80;1.00
22578;DHT22;11455;52.390;13.028;2023-06-24T06:58:47;18.90;1.00
22578;DHT22;11455;52.390;13.028;2023-06-24T07:01:13;18.90;1.00
22578;DHT22;11455;52.390;13.028;2023-06-24T07:03:39;19.00;1.00
22578;DHT22;11455;52.390;13.028;2023-06-24T07:06:07;19.10;1.00
22578;DHT22;11455;52.390;13.028;2023-06-24T07:08:33;19.10;1.00
22578;DHT22;11455;52.390;13.028;2023-06-24T07:10:59;19.10;1.00
22578;DHT22;11455;52.390;13.028;2023-06-24T07:13:24;19.10;99.90
22578;DHT22;11455;52.390;13.028;2023-06-24T07:15:50;19.10;99.90
22578;DHT22;11455;52.390;13.028;2023-06-24T07:18:16;19.20;99.90
22578;DHT22;11455;52.390;13.028;2023-06-24T07:20:41;19.40;99.90
22578;DHT22;11455;52.390;13.028;2023-06-24T07:23:07;19.40;99.90
22578;DHT22;11455;52.390;13.028;2023-06-24T07:25:32;19.40;99.90
22578;DHT22;11455;52.390;13.028;2023-06-24T07:27:59;19.30;99.90
22578;DHT22;11455;52.390;13.028;2023-06-24T07:30:25;19.40;99.90
22578;DHT22;11455;52.390;13.028;2023-06-24T07:32:54;19.40;99.90
22578;DHT22;11455;52.390;13.028;2023-06-24T07:35:19;19.30;99.90
22578;DHT22;11455;52.390;13.028;2023-06-24T07:37:45;19.30;99.90
22578;DHT22;11455;52.390;13.028;2023-06-24T07:40:11;19.40;99.90
22578;DHT22;11455;52.390;13.028;2023-06-24T07:42:36;19.30;99.90
22578;DHT22;11455;52.390;13.028;2023-06-24T07:45:04;19.30;99.90
22578;DHT22;11455;52.390;13.028;2023-06-24T07:47:30;19.30;99.90
22578;DHT22;11455;52.390;13.028;2023-06-24T07:49:57;19.30;99.90
22578;DHT22;11455;52.390;13.028;2023-06-24T07:52:23;19.40;99.90
22578;DHT22;11455;52.390;13.028;2023-06-24T07:54:48;19.50;99.90
22578;DHT22;11455;52.390;13.028;2023-06-24T07:57:14;19.40;99.90
22578;DHT22;11455;52.390;13.028;2023-06-24T07:59:42;19.50;99.90
22578;DHT22;11455;52.390;13.028;2023-06-24T08:02:08;19.60;99.90
22578;DHT22;11455;52.390;13.028;2023-06-24T08:04:33;19.50;99.90
22578;DHT22;11455;52.390;13.028;2023-06-24T08:07:02;19.60;99.90
22578;DHT22;11455;52.390;13.028;2023-06-24T08:09:28;19.70;99.90
22578;DHT22;11455;52.390;13.028;2023-06-24T08:11:53;19.80;99.90
22578;DHT22;11455;52.390;13.028;2023-06-24T08:14:19;19.90;99.90
22578;DHT22;11455;52.390;13.028;2023-06-24T08:16:52;19.90;99.90
22578;DHT22;11455;52.390;13.028;2023-06-24T08:19:18;20.00;99.90
22578;DHT22;11455;52.390;13.028;2023-06-24T08:21:43;20.10;99.90
22578;DHT22;11455;52.390;13.028;2023-06-24T08:24:09;20.00;99.90
22578;DHT22;11455;52.390;13.028;2023-06-24T08:26:35;20.00;99.90
22578;DHT22;11455;52.390;13.028;2023-06-24T08:29:11;20.10;99.90
22578;DHT22;11455;52.390;13.028;2023-06-24T08:31:36;20.00;99.90
22578;DHT22;11455;52.390;13.028;2023-06-24T08:34:02;20.10;99.90
22578;DHT22;11455;52.390;13.028;2023-06-24T08:36:28;20.20;99.90
22578;DHT22;11455;52.390;13.028;2023-06-24T08:38:56;20.40;99.90
22578;DHT22;11455;52.390;13.028;2023-06-24T08:41:22;20.40;94.60
22578;DHT22;11455;52.390;13.028;2023-06-24T08:43:48;20.30;99.90
22578;DHT22;11455;52.390;13.028;2023-06-24T08:46:14;20.40;79.60
22578;DHT22;11455;52.390;13.028;2023-06-24T08:48:42;20.40;43.80
22578;DHT22;11455;52.390;13.028;2023-06-24T08:51:13;20.30;60.80
22578;DHT22;11455;52.390;13.028;2023-06-24T08:53:41;20.30;20.80
22578;DHT22;11455;52.390;13.028;2023-06-24T08:56:08;20.20;63.90
22578;DHT22;11455;52.390;13.028;2023-06-24T08:58:34;20.20;1.00
22578;DHT22;11455;52.390;13.028;2023-06-24T09:01:00;20.10;1.00
22578;DHT22;11455;52.390;13.028;2023-06-24T09:03:25;20.20;1.00
22578;DHT22;11455;52.390;13.028;2023-06-24T09:05:51;20.40;1.00
22578;DHT22;11455;52.390;13.028;2023-06-24T09:08:17;20.40;1.00
22578;DHT22;11455;52.390;13.028;2023-06-24T09:10:43;20.60;1.00
22578;DHT22;11455;52.390;13.028;2023-06-24T09:13:09;20.70;1.00
22578;DHT22;11455;52.390;13.028;2023-06-24T09:15:35;20.80;1.00
22578;DHT22;11455;52.390;13.028;2023-06-24T09:18:01;20.70;1.00
22578;DHT22;11455;52.390;13.028;2023-06-24T09:20:30;20.80;1.00
22578;DHT22;11455;52.390;13.028;2023-06-24T09:23:00;20.80;1.00
22578;DHT22;11455;52.390;13.028;2023-06-24T09:25:26;20.70;1.00
22578;DHT22;11455;52.390;13.028;2023-06-24T09:27:52;20.90;1.00
22578;DHT22;11455;52.390;13.028;2023-06-24T09:30:21;21.00;1.00
22578;DHT22;11455;52.390;13.028;2023-06-24T09:32:49;21.10;1.00
22578;DHT22;11455;52.390;13.028;2023-06-24T09:35:19;21.10;1.00
22578;DHT22;11455;52.390;13.028;2023-06-24T09:37:52;21.10;1.00
22578;DHT22;11455;52.390;13.028;2023-06-24T09:40:18;21.00;1.00
22578;DHT22;11455;52.390;13.028;2023-06-24T09:42:54;21.10;1.00
22578;DHT22;11455;52.390;13.028;2023-06-24T09:45:21;21.10;1.00
22578;DHT22;11455;52.390;13.028;2023-06-24T09:47:47;21.20;1.00
22578;DHT22;11455;52.390;13.028;2023-06-24T09:50:12;21.30;1.00
22578;DHT22;11455;52.390;13.028;2023-06-24T09:52:38;21.30;1.00
22578;DHT22;11455;52.390;13.028;2023-06-24T09:55:04;21.30;1.00
22578;DHT22;11455;52.390;13.028;2023-06-24T09:57:30;21.20;1.00
22578;DHT22;11455;52.390;13.028;2023-06-24T09:59:58;21.10;1.00
22578;DHT22;11455;52.390;13.028;2023-06-24T10:02:23;21.20;1.00
22578;DHT22;11455;52.390;13.028;2023-06-24T10:04:50;21.40;1.00
22578;DHT22;11455;52.390;13.028;2023-06-24T10:07:17;21.50;1.00
22578;DHT22;11455;52.390;13.028;2023-06-24T10:09:42;21.60;1.00
22578;DHT22;11455;52.390;13.028;2023-06-24T10:12:08;21.40;1.00
22578;DHT22;11455;52.390;13.028;2023-06-24T10:14:34;21.40;1.00
22578;DHT22;11455;52.390;13.028;2023-06-24T10:17:03;21.40;1.00
22578;DHT22;11455;52.390;13.028;2023-06-24T10:19:37;21.30;1.00
22578;DHT22;11455;52.390;13.028;2023-06-24T10:22:03;21.30;1.00
22578;DHT22;11455;52.390;13.028;2023-06-24T10:24:41;21.40;1.00
22578;DHT22;11455;52.390;13.028;2023-06-24T10:27:16;21.40;1.00
22578;DHT22;11455;52.390;13.028;2023-06-24T10:29:46;21.50;1.00
22578;DHT22;11455;52.390;13.028;2023-06-24T10:32:12;21.70;1.00
22578;DHT22;11455;52.390;13.028;2023-06-24T10:39:45;21.90;1.00
22578;DHT22;11455;52.390;13.028;2023-06-24T10:47:29;22.10;1.00
22578;DHT22;11455;52.390;13.028;2023-06-24T10:49:55;21.90;1.00
22578;DHT22;11455;52.390;13.028;2023-06-24T10:52:21;21.90;1.00
22578;DHT22;11455;52.390;13.028;2023-06-24T10:54:47;21.80;1.00
22578;DHT22;11455;52.390;13.028;2023-06-24T10:57:13;21.90;1.00
22578;DHT22;11455;52.390;13.028;2023-06-24T10:59:46;21.90;1.00
22578;DHT22;11455;52.390;13.028;2023-06-24T11:02:16;22.00;1.00
22578;DHT22;11455;52.390;13.028;2023-06-24T11:04:49;22.00;1.00
22578;DHT22;11455;52.390;13.028;2023-06-24T11:07:15;22.00;1.00
22578;DHT22;11455;52.390;13.028;2023-06-24T11:09:42;22.10;1.00
22578;DHT22;11455;52.390;13.028;2023-06-24T11:12:08;22.10;1.00
22578;DHT22;11455;52.390;13.028;2023-06-24T11:14:34;22.10;1.00
22578;DHT22;11455;52.390;13.028;2023-06-24T11:17:03;22.10;1.00
22578;DHT22;11455;52.390;13.028;2023-06-24T11:19:31;22.20;1.00
22578;DHT22;11455;52.390;13.028;2023-06-24T11:22:01;22.30;1.00
22578;DHT22;11455;52.390;13.028;2023-06-24T11:24:27;22.30;1.00
22578;DHT22;11455;52.390;13.028;2023-06-24T11:26:53;22.30;1.00
22578;DHT22;11455;52.390;13.028;2023-06-24T11:29:19;22.30;1.00
22578;DHT22;11455;52.390;13.028;2023-06-24T11:31:44;22.30;1.00
22578;DHT22;11455;52.390;13.028;2023-06-24T11:34:10;22.30;1.00
22578;DHT22;11455;52.390;13.028;2023-06-24T11:36:36;22.40;1.00
22578;DHT22;11455;52.390;13.028;2023-06-24T11:39:02;22.50;1.00
22578;DHT22;11455;52.390;13.028;2023-06-24T11:41:28;22.50;1.00
22578;DHT22;11455;52.390;13.028;2023-06-24T11:43:54;22.50;1.00
22578;DHT22;11455;52.390;13.028;2023-06-24T11:46:29;22.60;1.00
22578;DHT22;11455;52.390;13.028;2023-06-24T11:49:15;22.80;1.00
22578;DHT22;11455;52.390;13.028;2023-06-24T11:51:47;22.80;1.00
22578;DHT22;11455;52.390;13.028;2023-06-24T11:54:14;22.80;1.00
22578;DHT22;11455;52.390;13.028;2023-06-24T11:56:40;22.80;1.00
22578;DHT22;11455;52.390;13.028;2023-06-24T11:59:06;22.80;1.00
22578;DHT22;11455;52.390;13.028;2023-06-24T12:01:32;22.80;1.00
22578;DHT22;11455;52.390;13.028;2023-06-24T12:04:01;22.80;1.00
22578;DHT22;11455;52.390;13.028;2023-06-24T12:06:29;22.90;1.00
22578;DHT22;11455;52.390;13.028;2023-06-24T12:08:55;23.00;1.00
22578;DHT22;11455;52.390;13.028;2023-06-24T12:11:20;23.20;1.00
22578;DHT22;11455;52.390;13.028;2023-06-24T12:13:46;23.30;1.00
22578;DHT22;11455;52.390;13.028;2023-06-24T12:16:12;23.50;1.00
22578;DHT22;11455;52.390;13.028;2023-06-24T12:18:37;23.50;1.00
22578;DHT22;11455;52.390;13.028;2023-06-24T12:21:03;23.60;1.00
22578;DHT22;11455;52.390;13.028;2023-06-24T12:23:29;23.70;1.00
22578;DHT22;11455;52.390;13.028;2023-06-24T12:25:54;23.60;1.00
22578;DHT22;11455;52.390;13.028;2023-06-24T12:28:20;23.60;1.00
22578;DHT22;11455;52.390;13.028;2023-06-24T12:30:45;23.60;1.00
22578;DHT22;11455;52.390;13.028;2023-06-24T12:33:11;23.80;1.00
22578;DHT22;11455;52.390;13.028;2023-06-24T12:35:37;23.90;1.00
22578;DHT22;11455;52.390;13.028;2023-06-24T12:38:02;23.90;1.00
22578;DHT22;11455;52.390;13.028;2023-06-24T12:40:28;24.00;1.00
22578;DHT22;11455;52.390;13.028;2023-06-24T12:42:54;24.10;1.00
22578;DHT22;11455;52.390;13.028;2023-06-24T12:45:22;24.10;1.00
22578;DHT22;11455;52.390;13.028;2023-06-24T12:47:48;24.10;1.00
22578;DHT22;11455;52.390;13.028;2023-06-24T12:50:15;24.20;1.00
22578;DHT22;11455;52.390;13.028;2023-06-24T12:52:41;24.30;1.00
22578;DHT22;11455;52.390;13.028;2023-06-24T12:55:07;24.50;1.00
22578;DHT22;11455;52.390;13.028;2023-06-24T12:57:32;24.70;1.00
22578;DHT22;11455;52.390;13.028;2023-06-24T12:59:58;24.80;1.00
22578;DHT22;11455;52.390;13.028;2023-06-24T13:02:23;24.80;1.00
22578;DHT22;11455;52.390;13.028;2023-06-24T13:04:49;24.90;1.00
22578;DHT22;11455;52.390;13.028;2023-06-24T13:07:15;25.00;1.00
22578;DHT22;11455;52.390;13.028;2023-06-24T13:09:40;25.00;1.00
22578;DHT22;11455;52.390;13.028;2023-06-24T13:12:06;25.10;1.00
22578;DHT22;11455;52.390;13.028;2023-06-24T13:14:33;25.00;1.00
22578;DHT22;11455;52.390;13.028;2023-06-24T13:16:59;25.00;1.00
22578;DHT22;11455;52.390;13.028;2023-06-24T13:19:24;25.00;1.00
22578;DHT22;11455;52.390;13.028;2023-06-24T13:21:50;25.00;1.00
22578;DHT22;11455;52.390;13.028;2023-06-24T13:24:16;25.00;1.00
22578;DHT22;11455;52.390;13.028;2023-06-24T13:26:41;25.00;1.00
22578;DHT22;11455;52.390;13.028;2023-06-24T13:29:07;25.00;1.00
22578;DHT22;11455;52.390;13.028;2023-06-24T13:31:33;25.10;1.00
22578;DHT22;11455;52.390;13.028;2023-06-24T13:33:58;25.10;1.00
22578;DHT22;11455;52.390;13.028;2023-06-24T13:36:33;25.00;1.00
22578;DHT22;11455;52.390;13.028;2023-06-24T13:39:01;25.20;1.00
22578;DHT22;11455;52.390;13.028;2023-06-24T13:41:27;25.30;1.00
22578;DHT22;11455;52.390;13.028;2023-06-24T13:43:56;25.40;1.00
22578;DHT22;11455;52.390;13.028;2023-06-24T13:46:22;25.30;1.00
22578;DHT22;11455;52.390;13.028;2023-06-24T13:48:48;25.40;1.00
22578;DHT22;11455;52.390;13.028;2023-06-24T13:51:15;25.50;1.00
22578;DHT22;11455;52.390;13.028;2023-06-24T13:53:41;25.50;1.00
22578;DHT22;11455;52.390;13.028;2023-06-24T13:56:09;25.60;1.00
22578;DHT22;11455;52.390;13.028;2023-06-24T13:58:34;25.60;1.00
22578;DHT22;11455;52.390;13.028;2023-06-24T14:01:00;25.70;1.00
22578;DHT22;11455;52.390;13.028;2023-06-24T14:03:26;25.80;1.00
22578;DHT22;11455;52.390;13.028;2023-06-24T14:05:52;25.80;1.00
22578;DHT22;11455;52.390;13.028;2023-06-24T14:08:17;25.70;1.00
22578;DHT22;11455;52.390;13.028;2023-06-24T14:10:45;25.80;1.00
22578;DHT22;11455;52.390;13.028;2023-06-24T14:13:11;25.90;1.00
22578;DHT22;11455;52.390;13.028;2023-06-24T14:15:37;25.90;1.00
22578;DHT22;11455;52.390;13.028;2023-06-24T14:18:02;25.80;1.00
22578;DHT22;11455;52.390;13.028;2023-06-24T14:20:28;25.80;1.00
22578;DHT22;11455;52.390;13.028;2023-06-24T14:22:53;25.90;1.00
22578;DHT22;11455;52.390;13.028;2023-06-24T14:25:19;26.00;1.00
22578;DHT22;11455;52.390;13.028;2023-06-24T14:27:45;26.20;1.00
22578;DHT22;11455;52.390;13.028;2023-06-24T14:30:10;26.20;1.00
22578;DHT22;11455;52.390;13.028;2023-06-24T14:32:37;26.10;1.00
22578;DHT22;11455;52.390;13.028;2023-06-24T14:35:03;25.90;1.00
22578;DHT22;11455;52.390;13.028;2023-06-24T14:37:29;25.90;1.00
22578;DHT22;11455;52.390;13.028;2023-06-24T14:39:54;25.90;1.00
22578;DHT22;11455;52.390;13.028;2023-06-24T14:42:20;25.80;1.00
22578;DHT22;11455;52.390;13.028;2023-06-24T14:44:46;25.80;1.00
22578;DHT22;11455;52.390;13.028;2023-06-24T14:47:12;25.90;1.00
22578;DHT22;11455;52.390;13.028;2023-06-24T14:49:38;25.90;1.00
22578;DHT22;11455;52.390;13.028;2023-06-24T14:52:03;26.00;1.00
22578;DHT22;11455;52.390;13.028;2023-06-24T14:54:29;26.00;1.00
22578;DHT22;11455;52.390;13.028;2023-06-24T14:56:55;26.00;1.00
22578;DHT22;11455;52.390;13.028;2023-06-24T14:59:20;26.20;1.00
22578;DHT22;11455;52.390;13.028;2023-06-24T15:01:46;26.20;1.00
22578;DHT22;11455;52.390;13.028;2023-06-24T15:04:14;26.30;1.00
22578;DHT22;11455;52.390;13.028;2023-06-24T15:06:40;26.30;1.00
22578;DHT22;11455;52.390;13.028;2023-06-24T15:09:06;26.40;1.00
22578;DHT22;11455;52.390;13.028;2023-06-24T15:11:31;26.30;1.00
22578;DHT22;11455;52.390;13.028;2023-06-24T15:13:57;26.30;1.00
22578;DHT22;11455;52.390;13.028;2023-06-24T15:16:22;26.10;1.00
22578;DHT22;11455;52.390;13.028;2023-06-24T15:18:48;26.20;1.00
22578;DHT22;11455;52.390;13.028;2023-06-24T15:21:15;26.20;1.00
22578;DHT22;11455;52.390;13.028;2023-06-24T15:23:41;26.20;1.00
22578;DHT22;11455;52.390;13.028;2023-06-24T15:26:07;26.10;1.00
22578;DHT22;11455;52.390;13.028;2023-06-24T15:28:33;26.10;1.00
22578;DHT22;11455;52.390;13.028;2023-06-24T15:31:01;26.20;1.00
22578;DHT22;11455;52.390;13.028;2023-06-24T15:33:27;26.20;1.00
22578;DHT22;11455;52.390;13.028;2023-06-24T15:35:52;26.20;1.00
22578;DHT22;11455;52.390;13.028;2023-06-24T15:38:18;26.10;1.00
22578;DHT22;11455;52.390;13.028;2023-06-24T15:40:44;26.00;1.00
22578;DHT22;11455;52.390;13.028;2023-06-24T15:43:09;26.00;1.00